Terminal Aerodrome Forecast
Issued by NWS

Home | Current Version | Previous Version | Text Only | Print | Product List | Glossary On
Versions: 1 2 3 4 5 6 7 8 9 10 11 12 13 14 15
000
FTUS43 KICT 290500
TAFCNU
TAF
KCNU 290520Z 2906/3006 16008KT P6SM SCT250
     FM290800 16008KT P6SM VCTS BKN060CB
      TEMPO 2908/2912 -TSRA
     FM291200 18012G18KT P6SM VCTS BKN060CB
     FM300000 18005KT P6SM VCTS BKN060CB=

USA.gov is the U.S. government's official web portal to all federal, state and local government web resources and services.